createdAt,value
2018-11-05T00:01:08.169Z,11.20
2018-11-05T00:03:36.666Z,11.30
2018-11-05T00:06:05.475Z,11.20
2018-11-05T00:08:34.058Z,11.20
2018-11-05T00:11:02.519Z,11.20
2018-11-05T00:13:31.002Z,11.10
2018-11-05T00:15:59.576Z,11.20
2018-11-05T00:18:27.971Z,11.10
2018-11-05T00:20:56.406Z,11.10
2018-11-05T00:23:24.803Z,11.10
2018-11-05T00:25:53.237Z,11.10
2018-11-05T00:28:21.723Z,11.10
2018-11-05T00:30:50.153Z,11.00
2018-11-05T00:33:18.582Z,11.10
2018-11-05T00:35:46.968Z,11.10
2018-11-05T00:38:15.671Z,11.00
2018-11-05T00:40:44.092Z,11.00
2018-11-05T00:43:12.510Z,11.00
2018-11-05T00:45:41.208Z,11.00
2018-11-05T00:48:09.568Z,11.00
2018-11-05T00:50:38.110Z,10.90
2018-11-05T00:53:06.548Z,11.00
2018-11-05T00:55:35.105Z,10.90
2018-11-05T00:58:03.657Z,10.90
2018-11-05T01:00:32.090Z,10.80
2018-11-05T01:03:00.969Z,10.80
2018-11-05T01:05:29.383Z,10.80
2018-11-05T01:07:57.869Z,10.70
2018-11-05T01:10:26.358Z,10.70
2018-11-05T01:12:54.758Z,10.50
2018-11-05T01:15:23.208Z,10.50
2018-11-05T01:17:51.719Z,10.40
2018-11-05T01:20:20.195Z,10.40
2018-11-05T01:22:48.621Z,10.50
2018-11-05T01:25:17.063Z,10.50
2018-11-05T01:27:45.562Z,10.50
2018-11-05T01:30:14.180Z,10.50
2018-11-05T01:32:42.646Z,10.40
2018-11-05T01:35:12.379Z,10.40
2018-11-05T01:37:40.922Z,10.30
2018-11-05T01:40:11.997Z,10.30
2018-11-05T01:42:40.460Z,10.10
2018-11-05T01:45:10.039Z,9.90
2018-11-05T01:47:38.466Z,9.80
2018-11-05T01:50:08.358Z,9.70
2018-11-05T01:52:36.793Z,9.70
2018-11-05T01:55:06.105Z,9.60
2018-11-05T01:57:34.587Z,9.70
2018-11-05T02:00:03.020Z,9.80
2018-11-05T02:02:31.471Z,9.80
2018-11-05T02:05:00.111Z,9.90
2018-11-05T02:07:28.929Z,9.90
2018-11-05T02:09:57.348Z,9.80
2018-11-05T02:12:25.761Z,9.80
2018-11-05T02:14:54.178Z,9.80
2018-11-05T02:17:22.638Z,9.80
2018-11-05T02:19:51.172Z,9.80
2018-11-05T02:22:19.570Z,9.80
2018-11-05T02:24:47.984Z,9.90
2018-11-05T02:27:16.442Z,9.70
2018-11-05T02:29:44.917Z,9.70
2018-11-05T02:32:13.442Z,9.70
2018-11-05T02:34:41.834Z,9.70
2018-11-05T02:37:10.246Z,9.60
2018-11-05T02:39:38.664Z,9.50
2018-11-05T02:42:07.123Z,9.20
2018-11-05T02:44:35.534Z,9.00
2018-11-05T02:47:03.986Z,9.00
2018-11-05T02:49:32.435Z,9.00
2018-11-05T02:52:00.857Z,8.90
2018-11-05T02:54:29.250Z,8.80
2018-11-05T02:56:57.663Z,8.90
2018-11-05T02:59:26.102Z,9.00
2018-11-05T03:01:54.514Z,9.00
2018-11-05T03:04:22.902Z,9.00
2018-11-05T03:06:51.375Z,9.00
2018-11-05T03:09:19.829Z,9.10
2018-11-05T03:11:48.244Z,9.20
2018-11-05T03:14:16.775Z,9.10
2018-11-05T03:16:45.166Z,8.80
2018-11-05T03:19:13.798Z,8.50
2018-11-05T03:21:42.201Z,8.30
2018-11-05T03:24:10.639Z,8.20
2018-11-05T03:26:39.909Z,8.10
2018-11-05T03:29:08.386Z,7.90
2018-11-05T03:31:36.830Z,7.80
2018-11-05T03:34:05.416Z,7.70
2018-11-05T03:36:33.842Z,7.70
2018-11-05T03:39:02.305Z,7.70
2018-11-05T03:41:30.724Z,7.90
2018-11-05T03:43:59.118Z,7.80
2018-11-05T03:46:27.592Z,7.80
2018-11-05T03:48:56.229Z,7.70
2018-11-05T03:51:24.653Z,7.60
2018-11-05T03:53:53.095Z,7.50
2018-11-05T03:56:21.589Z,7.40
2018-11-05T03:58:49.908Z,7.30
2018-11-05T04:01:18.317Z,7.20
2018-11-05T04:03:46.707Z,7.20
2018-11-05T04:06:15.323Z,7.10
2018-11-05T04:08:43.769Z,7.20
2018-11-05T04:11:12.143Z,7.30
2018-11-05T04:13:40.561Z,7.50
2018-11-05T04:16:09.658Z,7.70
2018-11-05T04:18:38.234Z,7.90
2018-11-05T04:21:06.639Z,8.10
2018-11-05T04:23:35.018Z,8.20
2018-11-05T04:26:03.487Z,8.30
2018-11-05T04:28:31.913Z,8.30
2018-11-05T04:31:00.367Z,8.40
2018-11-05T04:33:28.969Z,8.60
2018-11-05T04:35:57.843Z,8.50
2018-11-05T04:38:26.378Z,8.20
2018-11-05T04:40:54.962Z,8.20
2018-11-05T04:43:23.509Z,8.30
2018-11-05T04:45:52.403Z,8.30
2018-11-05T04:48:20.939Z,8.50
2018-11-05T04:50:49.335Z,8.60
2018-11-05T04:53:17.844Z,8.60
2018-11-05T04:55:46.297Z,8.70
2018-11-05T04:58:14.728Z,8.70
2018-11-05T05:00:43.520Z,8.60
2018-11-05T05:03:11.983Z,8.60
2018-11-05T05:05:40.523Z,8.50
2018-11-05T05:08:09.071Z,8.40
2018-11-05T05:10:37.513Z,8.20
2018-11-05T05:13:05.948Z,7.60
2018-11-05T05:15:34.350Z,7.30
2018-11-05T05:18:02.766Z,7.40
2018-11-05T05:20:31.440Z,7.50
2018-11-05T05:23:00.017Z,7.40
2018-11-05T05:25:28.297Z,7.40
2018-11-05T05:27:56.745Z,7.30
2018-11-05T05:30:25.202Z,7.30
2018-11-05T05:32:53.907Z,7.30
2018-11-05T05:35:22.282Z,7.50
2018-11-05T05:37:50.890Z,7.70
2018-11-05T05:40:19.420Z,7.90
2018-11-05T05:42:47.945Z,8.20
2018-11-05T05:45:16.502Z,8.20
2018-11-05T05:47:45.084Z,8.30
2018-11-05T05:50:16.707Z,8.50
2018-11-05T05:52:46.966Z,8.50
2018-11-05T05:55:15.543Z,8.40
2018-11-05T05:57:44.375Z,8.40
2018-11-05T06:00:14.348Z,8.50
2018-11-05T06:02:42.999Z,8.60
2018-11-05T06:05:12.550Z,8.60
2018-11-05T06:07:41.548Z,8.60
2018-11-05T06:10:11.400Z,8.50
2018-11-05T06:12:39.980Z,8.20
2018-11-05T06:15:11.897Z,8.00
2018-11-05T06:17:40.687Z,7.80
2018-11-05T06:20:12.812Z,7.80
2018-11-05T06:22:41.468Z,7.60
2018-11-05T06:25:10.024Z,7.20
2018-11-05T06:27:38.828Z,7.10
2018-11-05T06:30:15.077Z,7.20
2018-11-05T06:32:44.497Z,7.30
2018-11-05T06:35:13.053Z,7.50
2018-11-05T06:37:42.060Z,7.50
2018-11-05T06:40:14.274Z,7.50
2018-11-05T06:42:43.512Z,7.50
2018-11-05T06:45:13.604Z,7.60
2018-11-05T06:47:43.120Z,7.70
2018-11-05T06:50:13.975Z,7.70
2018-11-05T06:52:43.274Z,7.80
2018-11-05T06:55:12.697Z,7.60
2018-11-05T06:57:41.610Z,7.40
2018-11-05T07:00:13.470Z,7.40
2018-11-05T07:02:42.369Z,7.40
2018-11-05T07:05:11.045Z,7.50
2018-11-05T07:07:39.624Z,7.50
2018-11-05T07:10:09.888Z,7.60
2018-11-05T07:12:38.777Z,7.70
2018-11-05T07:15:09.129Z,7.90
2018-11-05T07:17:37.774Z,8.10
2018-11-05T07:20:08.455Z,8.10
2018-11-05T07:22:37.008Z,8.10
2018-11-05T07:25:06.776Z,8.00
2018-11-05T07:27:35.329Z,8.00
2018-11-05T07:30:04.878Z,8.10
2018-11-05T07:32:33.386Z,8.00
2018-11-05T07:35:01.973Z,7.80
2018-11-05T07:37:30.591Z,7.60
2018-11-05T07:39:59.101Z,7.40
2018-11-05T07:42:27.790Z,7.40
2018-11-05T07:44:56.446Z,7.40
2018-11-05T07:47:24.986Z,7.40
2018-11-05T07:49:53.515Z,7.60
2018-11-05T07:52:22.064Z,7.80
2018-11-05T07:54:50.672Z,7.90
2018-11-05T07:57:19.188Z,7.90
2018-11-05T07:59:47.702Z,8.00
2018-11-05T08:02:16.202Z,8.00
2018-11-05T08:04:44.714Z,8.00
2018-11-05T08:07:13.292Z,8.00
2018-11-05T08:09:42.019Z,7.80
2018-11-05T08:12:10.565Z,7.80
2018-11-05T08:14:39.440Z,7.90
2018-11-05T08:17:08.096Z,7.90
2018-11-05T08:19:36.616Z,8.10
2018-11-05T08:22:05.143Z,8.10
2018-11-05T08:24:33.613Z,8.00
2018-11-05T08:27:02.154Z,8.10
2018-11-05T08:29:30.756Z,8.20
2018-11-05T08:31:59.313Z,8.10
2018-11-05T08:34:27.821Z,8.20
2018-11-05T08:36:56.312Z,8.20
2018-11-05T08:39:24.844Z,8.10
2018-11-05T08:41:53.368Z,8.10
2018-11-05T08:44:21.953Z,8.10
2018-11-05T08:46:50.517Z,8.20
2018-11-05T08:49:19.026Z,8.30
2018-11-05T08:51:47.829Z,8.40
2018-11-05T08:54:16.265Z,8.40
2018-11-05T08:56:44.646Z,8.50
2018-11-05T08:59:13.150Z,8.70
2018-11-05T09:01:41.725Z,8.80
2018-11-05T09:04:10.265Z,8.80
2018-11-05T09:06:38.912Z,8.80
2018-11-05T09:09:08.377Z,8.60
2018-11-05T09:11:37.282Z,8.60
2018-11-05T09:14:05.542Z,8.60
2018-11-05T09:16:34.133Z,8.70
2018-11-05T09:19:02.743Z,8.80
2018-11-05T09:21:31.305Z,8.90
2018-11-05T09:23:59.780Z,8.80
2018-11-05T09:26:28.340Z,8.80
2018-11-05T09:28:56.819Z,8.90
2018-11-05T09:31:25.369Z,9.00
2018-11-05T09:33:53.883Z,9.10
2018-11-05T09:36:22.477Z,9.00
2018-11-05T09:38:51.001Z,8.90
2018-11-05T09:41:19.546Z,9.00
2018-11-05T09:43:48.045Z,9.20
2018-11-05T09:46:16.590Z,9.30
2018-11-05T09:48:45.119Z,9.40
2018-11-05T09:51:13.668Z,9.70
2018-11-05T09:53:42.272Z,10.00
2018-11-05T09:56:10.888Z,10.20
2018-11-05T09:58:39.474Z,10.40
2018-11-05T10:01:07.936Z,10.60
2018-11-05T10:03:42.006Z,10.70
2018-11-05T10:06:10.386Z,10.90
2018-11-05T10:08:38.911Z,11.00
2018-11-05T10:11:07.543Z,11.20
2018-11-05T10:13:36.047Z,11.30
2018-11-05T10:16:04.903Z,11.50
2018-11-05T10:18:33.434Z,11.60
2018-11-05T10:21:04.052Z,11.70
2018-11-05T10:23:32.664Z,11.80
2018-11-05T10:26:01.156Z,11.90
2018-11-05T10:28:29.726Z,12.00
2018-11-05T10:30:58.341Z,12.10
2018-11-05T10:33:26.977Z,12.10
2018-11-05T10:35:57.271Z,12.20
2018-11-05T10:38:26.351Z,12.30
2018-11-05T10:40:54.877Z,12.30
2018-11-05T10:43:23.472Z,12.30
2018-11-05T10:45:52.068Z,12.20
2018-11-05T10:48:20.654Z,12.20
2018-11-05T10:50:49.238Z,12.30
2018-11-05T10:53:17.815Z,12.40
2018-11-05T10:55:46.407Z,12.10
2018-11-05T10:58:14.955Z,12.10
2018-11-05T11:00:48.724Z,12.10
2018-11-05T11:03:19.661Z,12.30
2018-11-05T11:05:48.133Z,12.40
2018-11-05T11:08:16.735Z,12.50
2018-11-05T11:10:45.283Z,12.60
2018-11-05T11:13:13.923Z,12.80
2018-11-05T11:15:42.444Z,12.90
2018-11-05T11:18:11.198Z,13.00
2018-11-05T11:20:39.718Z,13.10
2018-11-05T11:23:08.240Z,13.20
2018-11-05T11:25:36.866Z,13.30
2018-11-05T11:28:05.741Z,13.40
2018-11-05T11:30:34.149Z,13.50
2018-11-05T11:33:02.789Z,13.60
2018-11-05T11:35:31.320Z,13.70
2018-11-05T11:37:59.845Z,13.80
2018-11-05T11:40:28.480Z,13.90
2018-11-05T11:42:57.071Z,13.90
2018-11-05T11:45:25.856Z,14.10
2018-11-05T11:47:54.396Z,14.00
2018-11-05T11:50:23.024Z,14.10
2018-11-05T11:52:51.870Z,14.20
2018-11-05T11:55:22.093Z,14.30
2018-11-05T11:57:50.687Z,14.30
2018-11-05T12:00:21.688Z,14.40
2018-11-05T12:02:51.008Z,14.40
2018-11-05T12:05:19.681Z,14.60
2018-11-05T12:07:48.149Z,14.60
2018-11-05T12:10:20.288Z,14.70
2018-11-05T12:12:48.872Z,14.90
2018-11-05T12:15:18.264Z,14.90
2018-11-05T12:17:47.834Z,15.00
2018-11-05T12:20:17.851Z,15.10
2018-11-05T12:22:47.088Z,15.10
2018-11-05T12:25:15.638Z,15.30
2018-11-05T12:27:44.161Z,15.30
2018-11-05T12:30:17.036Z,15.30
2018-11-05T12:32:46.607Z,15.40
2018-11-05T12:35:15.194Z,15.40
2018-11-05T12:37:44.997Z,15.50
2018-11-05T12:40:15.421Z,15.50
2018-11-05T12:42:45.044Z,15.60
2018-11-05T12:45:13.834Z,15.60
2018-11-05T12:47:43.642Z,15.70
2018-11-05T12:50:19.206Z,15.60
2018-11-05T12:52:49.095Z,15.70
2018-11-05T12:55:17.710Z,15.70
2018-11-05T12:57:46.453Z,15.70
2018-11-05T13:00:18.258Z,15.70
2018-11-05T13:02:52.806Z,15.70
2018-11-05T13:05:21.586Z,15.80
2018-11-05T13:07:51.136Z,15.80
2018-11-05T13:10:19.685Z,15.90
2018-11-05T13:12:48.272Z,15.90
2018-11-05T13:15:16.866Z,16.00
2018-11-05T13:17:45.327Z,16.10
2018-11-05T13:20:17.407Z,16.10
2018-11-05T13:22:46.221Z,16.20
2018-11-05T13:25:14.815Z,16.20
2018-11-05T13:27:44.585Z,16.20
2018-11-05T13:30:13.781Z,16.30
2018-11-05T13:32:42.760Z,16.30
2018-11-05T13:35:16.587Z,16.30
2018-11-05T13:37:45.691Z,16.40
2018-11-05T13:40:17.059Z,16.40
2018-11-05T13:42:46.124Z,16.50
2018-11-05T13:45:15.311Z,16.50
2018-11-05T13:47:44.542Z,16.50
2018-11-05T13:50:13.276Z,16.50
2018-11-05T13:52:45.264Z,16.60
2018-11-05T13:55:21.600Z,16.60
2018-11-05T13:57:50.142Z,16.70
2018-11-05T14:00:20.117Z,16.70
2018-11-05T14:02:49.424Z,16.70
2018-11-05T14:05:18.081Z,16.70
2018-11-05T14:07:46.660Z,16.70
2018-11-05T14:10:17.846Z,16.70
2018-11-05T14:12:46.886Z,16.70
2018-11-05T14:15:15.360Z,16.80
2018-11-05T14:17:44.702Z,16.80
2018-11-05T14:20:14.308Z,16.80
2018-11-05T14:22:43.210Z,16.80
2018-11-05T14:25:14.158Z,16.80
2018-11-05T14:27:43.753Z,16.90
2018-11-05T14:30:13.083Z,16.90
2018-11-05T14:32:42.923Z,16.90
2018-11-05T14:35:11.519Z,16.90
2018-11-05T14:37:40.225Z,16.90
2018-11-05T14:40:10.563Z,16.90
2018-11-05T14:42:39.296Z,16.90
2018-11-05T14:45:09.993Z,16.90
2018-11-05T14:47:38.907Z,16.90
2018-11-05T14:50:10.065Z,16.90
2018-11-05T14:52:39.757Z,16.80
2018-11-05T14:55:11.787Z,16.80
2018-11-05T14:57:40.615Z,16.80
2018-11-05T15:00:15.926Z,16.80
2018-11-05T15:02:45.114Z,16.80
2018-11-05T15:05:16.329Z,16.80
2018-11-05T15:07:46.004Z,16.70
2018-11-05T15:10:16.442Z,16.70
2018-11-05T15:12:45.242Z,16.70
2018-11-05T15:15:14.580Z,16.60
2018-11-05T15:17:43.725Z,16.60
2018-11-05T15:20:13.838Z,16.60
2018-11-05T15:22:42.282Z,16.60
2018-11-05T15:25:11.267Z,16.60
2018-11-05T15:27:40.250Z,16.50
2018-11-05T15:30:12.876Z,16.50
2018-11-05T15:32:42.057Z,16.40
2018-11-05T15:35:10.790Z,16.40
2018-11-05T15:37:40.356Z,16.30
2018-11-05T15:40:10.284Z,16.20
2018-11-05T15:42:39.212Z,16.10
2018-11-05T15:45:09.224Z,16.00
2018-11-05T15:47:38.135Z,15.80
2018-11-05T15:50:08.829Z,15.70
2018-11-05T15:52:37.681Z,15.60
2018-11-05T15:55:06.077Z,15.40
2018-11-05T15:57:35.084Z,15.20
2018-11-05T16:00:03.990Z,15.10
2018-11-05T16:02:32.537Z,15.00
2018-11-05T16:05:01.069Z,14.90
2018-11-05T16:07:29.600Z,14.80
2018-11-05T16:09:58.124Z,14.70
2018-11-05T16:12:29.296Z,14.60
2018-11-05T16:14:58.434Z,14.50
2018-11-05T16:17:26.966Z,14.30
2018-11-05T16:19:55.465Z,14.10
2018-11-05T16:22:24.058Z,14.00
2018-11-05T16:24:52.700Z,13.80
2018-11-05T16:27:21.239Z,13.80
2018-11-05T16:29:49.864Z,13.80
2018-11-05T16:32:18.528Z,13.70
2018-11-05T16:34:47.034Z,13.50
2018-11-05T16:37:15.491Z,13.40
2018-11-05T16:39:45.871Z,13.40
2018-11-05T16:42:14.277Z,13.40
2018-11-05T16:44:42.855Z,13.40
2018-11-05T16:47:11.380Z,13.40
2018-11-05T16:49:40.018Z,13.30
2018-11-05T16:52:09.918Z,13.10
2018-11-05T16:54:38.610Z,13.00
2018-11-05T16:57:07.244Z,12.80
2018-11-05T16:59:36.367Z,12.80
2018-11-05T17:02:09.671Z,12.70
2018-11-05T17:04:38.334Z,12.70
2018-11-05T17:07:06.917Z,12.80
2018-11-05T17:09:35.496Z,12.90
2018-11-05T17:12:04.368Z,13.00
2018-11-05T17:14:32.918Z,13.10
2018-11-05T17:17:01.585Z,13.10
2018-11-05T17:19:30.600Z,13.10
2018-11-05T17:21:59.170Z,13.00
2018-11-05T17:24:28.585Z,13.00
2018-11-05T17:26:58.032Z,12.90
2018-11-05T17:29:26.935Z,12.90
2018-11-05T17:31:55.598Z,12.90
2018-11-05T17:34:24.168Z,12.70
2018-11-05T17:36:53.221Z,12.60
2018-11-05T17:39:21.863Z,12.40
2018-11-05T17:41:50.547Z,12.40
2018-11-05T17:44:19.062Z,12.30
2018-11-05T17:46:47.651Z,12.10
2018-11-05T17:49:16.262Z,12.00
2018-11-05T17:51:44.874Z,12.10
2018-11-05T17:54:13.737Z,12.10
2018-11-05T17:56:42.396Z,12.00
2018-11-05T17:59:10.894Z,11.70
2018-11-05T18:01:39.453Z,11.40
2018-11-05T18:04:08.026Z,11.20
2018-11-05T18:06:36.571Z,11.20
2018-11-05T18:09:07.846Z,11.20
2018-11-05T18:11:36.949Z,11.10
2018-11-05T18:14:09.539Z,11.00
2018-11-05T18:16:38.083Z,11.10
2018-11-05T18:19:06.936Z,11.10
2018-11-05T18:21:35.680Z,11.20
2018-11-05T18:24:04.517Z,11.10
2018-11-05T18:26:33.140Z,11.20
2018-11-05T18:29:08.940Z,11.30
2018-11-05T18:31:57.538Z,11.30
2018-11-05T18:34:26.641Z,11.40
2018-11-05T18:36:55.312Z,11.40
2018-11-05T18:39:23.925Z,11.40
2018-11-05T18:41:52.517Z,11.40
2018-11-05T18:44:21.125Z,11.40
2018-11-05T18:46:49.828Z,11.50
2018-11-05T18:49:18.645Z,11.50
2018-11-05T18:51:47.407Z,11.50
2018-11-05T18:54:16.383Z,11.60
2018-11-05T18:56:45.017Z,11.60
2018-11-05T18:59:13.708Z,11.70
2018-11-05T19:01:42.436Z,11.60
2018-11-05T19:04:11.272Z,11.60
2018-11-05T19:06:39.894Z,11.60
2018-11-05T19:09:08.494Z,11.60
2018-11-05T19:11:39.311Z,11.60
2018-11-05T19:14:08.585Z,11.60
2018-11-05T19:16:40.188Z,11.60
2018-11-05T19:19:09.674Z,11.50
2018-11-05T19:21:38.657Z,11.40
2018-11-05T19:24:07.827Z,11.40
2018-11-05T19:26:39.746Z,11.40
2018-11-05T19:29:09.100Z,11.30
2018-11-05T19:31:40.342Z,11.30
2018-11-05T19:34:12.918Z,11.20
2018-11-05T19:36:43.268Z,11.10
2018-11-05T19:39:13.479Z,11.10
2018-11-05T19:41:42.998Z,11.20
2018-11-05T19:44:12.203Z,11.10
2018-11-05T19:46:44.333Z,11.10
2018-11-05T19:49:13.078Z,11.10
2018-11-05T19:51:48.385Z,11.10
2018-11-05T19:54:21.771Z,10.80
2018-11-05T19:56:50.478Z,10.70
2018-11-05T19:59:28.843Z,10.60
2018-11-05T20:01:57.833Z,10.70
2018-11-05T20:04:26.715Z,10.70
2018-11-05T20:06:55.568Z,10.70
2018-11-05T20:09:24.800Z,10.70
2018-11-05T20:11:53.811Z,10.70
2018-11-05T20:14:22.995Z,10.70
2018-11-05T20:16:52.002Z,10.60
2018-11-05T20:19:21.273Z,10.60
2018-11-05T20:21:50.346Z,10.40
2018-11-05T20:24:19.468Z,10.40
2018-11-05T20:26:48.686Z,10.40
2018-11-05T20:29:17.716Z,10.40
2018-11-05T20:31:47.107Z,10.40
2018-11-05T20:34:16.261Z,10.40
2018-11-05T20:36:46.118Z,10.50
2018-11-05T20:39:15.363Z,10.60
2018-11-05T20:41:44.583Z,10.60
2018-11-05T20:44:13.810Z,10.60
2018-11-05T20:46:43.320Z,10.70
2018-11-05T20:49:12.367Z,10.70
2018-11-05T20:51:41.692Z,10.70
2018-11-05T20:54:11.056Z,10.40
2018-11-05T20:56:40.395Z,10.10
2018-11-05T20:59:09.751Z,9.90
2018-11-05T21:01:39.045Z,9.70
2018-11-05T21:04:08.400Z,9.70
2018-11-05T21:06:37.465Z,9.70
2018-11-05T21:09:08.618Z,9.70
2018-11-05T21:11:37.617Z,9.60
2018-11-05T21:14:06.757Z,9.50
2018-11-05T21:16:35.953Z,9.50
2018-11-05T21:19:05.493Z,9.60
2018-11-05T21:21:34.133Z,9.60
2018-11-05T21:24:02.509Z,9.60
2018-11-05T21:26:31.090Z,9.60
2018-11-05T21:28:59.526Z,9.60
2018-11-05T21:31:28.090Z,9.60
2018-11-05T21:36:25.602Z,9.50
2018-11-05T21:38:54.116Z,9.60
2018-11-05T21:41:24.069Z,9.80
2018-11-05T21:43:53.241Z,9.90
2018-11-05T21:46:22.780Z,10.00
2018-11-05T21:48:51.265Z,10.00
2018-11-05T21:51:19.811Z,10.00
2018-11-05T21:53:48.357Z,10.10
2018-11-05T21:56:16.887Z,10.20
2018-11-05T21:58:45.414Z,10.30
2018-11-05T22:01:13.916Z,10.30
2018-11-05T22:03:42.399Z,10.30
2018-11-05T22:06:10.958Z,10.40
2018-11-05T22:08:39.559Z,10.50
2018-11-05T22:11:08.192Z,10.60
2018-11-05T22:13:36.737Z,10.60
2018-11-05T22:16:05.747Z,10.60
2018-11-05T22:18:34.231Z,10.60
2018-11-05T22:21:02.671Z,10.70
2018-11-05T22:23:31.174Z,10.60
2018-11-05T22:25:59.756Z,10.50
2018-11-05T22:28:28.234Z,10.20
2018-11-05T22:30:56.739Z,9.90
2018-11-05T22:33:25.279Z,9.80
2018-11-05T22:35:53.852Z,9.80
2018-11-05T22:38:22.315Z,9.60
2018-11-05T22:40:50.836Z,9.60
2018-11-05T22:43:19.416Z,9.50
2018-11-05T22:45:47.890Z,9.60
2018-11-05T22:48:16.542Z,9.60
2018-11-05T22:50:45.107Z,9.70
2018-11-05T22:53:13.762Z,9.70
2018-11-05T22:55:42.321Z,9.70
2018-11-05T22:58:10.872Z,9.60
2018-11-05T23:00:44.779Z,9.60
2018-11-05T23:03:18.532Z,9.60
2018-11-05T23:05:47.190Z,9.60
2018-11-05T23:08:15.711Z,9.70
2018-11-05T23:10:44.267Z,9.60
2018-11-05T23:13:12.827Z,9.60
2018-11-05T23:15:41.363Z,9.70
2018-11-05T23:18:09.923Z,9.70
2018-11-05T23:20:38.343Z,9.80
2018-11-05T23:23:06.951Z,9.80
2018-11-05T23:25:35.466Z,10.00
2018-11-05T23:28:03.966Z,10.20
2018-11-05T23:30:32.553Z,10.40
2018-11-05T23:33:01.115Z,10.60
2018-11-05T23:35:29.769Z,10.70
2018-11-05T23:37:58.308Z,10.80
2018-11-05T23:40:26.842Z,10.80
2018-11-05T23:42:55.473Z,10.80
2018-11-05T23:45:24.003Z,10.90
2018-11-05T23:47:52.599Z,10.90
2018-11-05T23:50:21.171Z,10.90
2018-11-05T23:52:49.706Z,11.00
2018-11-05T23:55:18.243Z,10.90
2018-11-05T23:57:46.728Z,10.80
